JAF248 LKPR-LRTR
Flight info
| Callsign | JAF248 |
|---|---|
| Flight time | N/A |
| Altitude | 37000 |
| Route | VOZ4B/30 VOZ DCT NELPA DCT PISAM DCT PESAT DCT BUG DCT TEGRI |
| Aircraft | B738/M-SDE2E3FGHIRWXY/LB1 |
Departure
| Time | N/A |
|---|---|
| Airport | Václav Havel Airport Prague (LKPR) |
Arrival
| Time | 2026-04-24 18:54 |
|---|---|
| Airport | Timișoara Traian Vuia International Airport (LRTR) |
| Time | Latitude | Longitude | Altitude | Speed | Heading |
|---|---|---|---|---|---|
| 2026-04-24 16:59 | 50.10562 | 14.26344 | 1201 ft | 0 kts | 36° |
| 2026-04-24 17:01 | 50.10563 | 14.26344 | 1201 ft | 0 kts | 36° |
| 2026-04-24 17:02 | 50.10563 | 14.26345 | 1201 ft | 0 kts | 36° |
| 2026-04-24 17:04 | 50.10564 | 14.26345 | 1201 ft | 0 kts | 36° |
| 2026-04-24 17:05 | 50.10564 | 14.26346 | 1201 ft | 0 kts | 36° |
| 2026-04-24 17:07 | 50.10565 | 14.26347 | 1201 ft | 0 kts | 36° |
| 2026-04-24 17:10 | 50.10566 | 14.26348 | 1201 ft | 0 kts | 36° |
| 2026-04-24 18:54 | 45.81295 | 21.32035 | 356 ft | 0 kts | 198° |
| 2026-04-24 18:55 | 45.81294 | 21.32035 | 356 ft | 0 kts | 198° |
| 2026-04-24 18:56 | 45.81294 | 21.32034 | 356 ft | 0 kts | 198° |
| 2026-04-24 18:57 | 45.81293 | 21.32034 | 356 ft | 0 kts | 198° |
| 2026-04-24 18:58 | 45.81235 | 21.32007 | 356 ft | 11 kts | 198° |
| 2026-04-24 18:58 | 45.81191 | 21.32042 | 356 ft | 6 kts | 118° |
| 2026-04-24 18:58 | 45.81172 | 21.32090 | 356 ft | 7 kts | 142° |
| 2026-04-24 18:58 | 45.81096 | 21.32077 | 356 ft | 9 kts | 200° |
| 2026-04-24 18:59 | 45.81085 | 21.32072 | 356 ft | 0 kts | 197° |
| 2026-04-24 18:59 | 45.81085 | 21.32071 | 356 ft | 0 kts | 197° |
| 2026-04-24 19:00 | 45.81084 | 21.32071 | 356 ft | 0 kts | 197° |
| 2026-04-24 19:01 | 45.81084 | 21.32074 | 356 ft | 0 kts | 197° |
| 2026-04-24 19:01 | 45.81083 | 21.32070 | 356 ft | 2 kts | 199° |
| 2026-04-24 19:01 | 45.81078 | 21.32067 | 356 ft | 0 kts | 199° |
| 2026-04-24 19:01 | 45.81086 | 21.32071 | 356 ft | 2 kts | 199° |
| 2026-04-24 19:03 | 45.81085 | 21.32071 | 356 ft | 0 kts | 199° |
| 2026-04-24 19:05 | 45.81085 | 21.32070 | 356 ft | 0 kts | 199° |
| 2026-04-24 19:05 | 45.81084 | 21.32070 | 356 ft | 0 kts | 199° |
| 2026-04-24 19:08 | 45.81083 | 21.32070 | 356 ft | 0 kts | 199° |
| 2026-04-24 19:10 | 45.81083 | 21.32069 | 356 ft | 0 kts | 199° |
| 2026-04-24 19:10 | 45.81082 | 21.32069 | 356 ft | 0 kts | 199° |
| 2026-04-24 19:12 | 45.81081 | 21.32069 | 356 ft | 0 kts | 199° |
| 2026-04-24 19:14 | 45.81081 | 21.32068 | 356 ft | 0 kts | 199° |
| 2026-04-24 19:14 | 45.81080 | 21.32068 | 356 ft | 0 kts | 199° |
| 2026-04-24 19:17 | 45.81079 | 21.32068 | 356 ft | 0 kts | 199° |
| 2026-04-24 19:19 | 45.81079 | 21.32067 | 356 ft | 0 kts | 199° |
| 2026-04-24 19:19 | 45.81078 | 21.32067 | 356 ft | 0 kts | 199° |
| 2026-04-24 19:22 | 45.81077 | 21.32067 | 356 ft | 0 kts | 199° |
| 2026-04-24 19:24 | 45.81077 | 21.32066 | 356 ft | 0 kts | 199° |